SAA344 FACT-FAOR
Flight info
| Callsign | SAA344 |
|---|---|
| Flight time | 1h 37m |
| Altitude | 37000 |
| Route | TETAN1A TETAN UZ2 NIBEX NIBEX1D |
| Aircraft | A346/H-SDE2E3FGHIJ3J4J5M1RWXY/LB1D1 |
Departure
| Time | 2026-05-07 15:49 |
|---|---|
| Airport | Cape Town International Airport (FACT) |
Arrival
| Time | 2026-05-07 17:27 |
|---|---|
| Airport | O.R. Tambo International Airport (FAOR) |
| Time | Latitude | Longitude | Altitude | Speed | Heading |
|---|---|---|---|---|---|
| 2026-05-07 15:15 | -33.96718 | 18.59917 | 165 ft | 0 kts | 75° |
| 2026-05-07 15:42 | -33.96721 | 18.59900 | 165 ft | 4 kts | 75° |
| 2026-05-07 15:42 | -33.96728 | 18.59874 | 165 ft | 4 kts | 64° |
| 2026-05-07 15:42 | -33.96739 | 18.59857 | 165 ft | 4 kts | 28° |
| 2026-05-07 15:43 | -33.96755 | 18.59853 | 165 ft | 4 kts | 350° |
| 2026-05-07 15:43 | -33.96781 | 18.59862 | 165 ft | 4 kts | 343° |
| 2026-05-07 15:43 | -33.96791 | 18.59865 | 165 ft | 0 kts | 344° |
| 2026-05-07 15:45 | -33.96789 | 18.59864 | 165 ft | 3 kts | 344° |
| 2026-05-07 15:46 | -33.96631 | 18.59813 | 165 ft | 17 kts | 346° |
| 2026-05-07 15:46 | -33.96507 | 18.59779 | 165 ft | 20 kts | 349° |
| 2026-05-07 15:46 | -33.96370 | 18.59750 | 165 ft | 18 kts | 350° |
| 2026-05-07 15:47 | -33.96285 | 18.59733 | 165 ft | 9 kts | 350° |
| 2026-05-07 15:47 | -33.96218 | 18.59743 | 164 ft | 12 kts | 29° |
| 2026-05-07 15:47 | -33.96146 | 18.59824 | 163 ft | 16 kts | 44° |
| 2026-05-07 15:47 | -33.96062 | 18.59926 | 163 ft | 17 kts | 45° |
| 2026-05-07 15:48 | -33.96023 | 18.59995 | 162 ft | 2 kts | 101° |
| 2026-05-07 15:48 | -33.96035 | 18.60023 | 162 ft | 3 kts | 136° |
| 2026-05-07 15:48 | -33.96067 | 18.60036 | 162 ft | 8 kts | 165° |
| 2026-05-07 15:48 | -33.96393 | 18.60137 | 164 ft | 93 kts | 166° |
| 2026-05-07 15:49 | -33.97282 | 18.60417 | 163 ft | 168 kts | 165° |
| 2026-05-07 15:49 | -33.98526 | 18.60829 | 751 ft | 191 kts | 168° |
| 2026-05-07 15:49 | -33.99790 | 18.61220 | 1943 ft | 189 kts | 166° |
| 2026-05-07 15:49 | -34.01080 | 18.61617 | 3048 ft | 197 kts | 164° |
| 2026-05-07 15:50 | -34.02499 | 18.62055 | 3903 ft | 219 kts | 164° |
| 2026-05-07 15:50 | -34.04012 | 18.62520 | 4803 ft | 234 kts | 164° |
| 2026-05-07 15:50 | -34.05640 | 18.63028 | 5516 ft | 250 kts | 164° |
| 2026-05-07 15:50 | -34.07278 | 18.63838 | 6255 ft | 261 kts | 141° |
| 2026-05-07 15:51 | -34.08291 | 18.65625 | 7196 ft | 264 kts | 107° |
| 2026-05-07 15:51 | -34.08383 | 18.67854 | 8088 ft | 274 kts | 80° |
| 2026-05-07 15:51 | -34.07579 | 18.69982 | 8693 ft | 286 kts | 56° |
| 2026-05-07 15:51 | -34.06370 | 18.71909 | 9067 ft | 289 kts | 55° |
| 2026-05-07 15:52 | -34.05149 | 18.73850 | 9275 ft | 291 kts | 55° |
| 2026-05-07 15:52 | -34.03906 | 18.75857 | 9776 ft | 300 kts | 56° |
| 2026-05-07 15:52 | -34.02706 | 18.77911 | 10735 ft | 300 kts | 57° |
| 2026-05-07 15:52 | -34.01507 | 18.80033 | 11371 ft | 313 kts | 58° |
| 2026-05-07 15:53 | -34.00248 | 18.82272 | 11841 ft | 331 kts | 57° |
| 2026-05-07 15:53 | -33.98915 | 18.84638 | 12289 ft | 350 kts | 57° |
| 2026-05-07 15:53 | -33.97506 | 18.87128 | 12718 ft | 369 kts | 57° |
| 2026-05-07 15:53 | -33.96027 | 18.89735 | 13189 ft | 384 kts | 57° |
| 2026-05-07 15:54 | -33.95017 | 18.91513 | 13624 ft | 391 kts | 57° |
| 2026-05-07 15:54 | -33.93462 | 18.94243 | 14348 ft | 397 kts | 56° |
| 2026-05-07 15:54 | -33.91352 | 18.97946 | 15343 ft | 404 kts | 56° |
| 2026-05-07 15:54 | -33.90295 | 18.99802 | 15840 ft | 407 kts | 56° |
| 2026-05-07 15:55 | -33.88682 | 19.02630 | 16590 ft | 412 kts | 56° |
| 2026-05-07 15:55 | -33.87048 | 19.05498 | 17331 ft | 417 kts | 56° |
| 2026-05-07 15:55 | -33.85399 | 19.08392 | 18070 ft | 422 kts | 56° |
| 2026-05-07 15:55 | -33.83724 | 19.11324 | 18748 ft | 427 kts | 56° |
| 2026-05-07 15:56 | -33.82031 | 19.14288 | 19371 ft | 432 kts | 56° |
| 2026-05-07 15:56 | -33.80315 | 19.17287 | 19980 ft | 437 kts | 56° |
| 2026-05-07 15:56 | -33.78584 | 19.20309 | 20584 ft | 442 kts | 56° |
| 2026-05-07 15:56 | -33.76827 | 19.23372 | 21215 ft | 446 kts | 56° |
| 2026-05-07 15:57 | -33.75053 | 19.26464 | 21834 ft | 451 kts | 55° |
| 2026-05-07 15:57 | -33.73258 | 19.29590 | 22441 ft | 457 kts | 55° |
| 2026-05-07 15:57 | -33.71443 | 19.32748 | 23039 ft | 461 kts | 55° |
| 2026-05-07 15:57 | -33.69607 | 19.35938 | 23629 ft | 467 kts | 55° |
| 2026-05-07 15:58 | -33.67748 | 19.39167 | 24116 ft | 472 kts | 55° |
| 2026-05-07 15:58 | -33.65824 | 19.42388 | 24616 ft | 476 kts | 52° |
| 2026-05-07 15:58 | -33.63812 | 19.45498 | 25116 ft | 479 kts | 51° |
| 2026-05-07 15:58 | -33.61719 | 19.48696 | 25689 ft | 482 kts | 51° |
| 2026-05-07 15:59 | -33.59636 | 19.51870 | 26203 ft | 485 kts | 51° |
| 2026-05-07 15:59 | -33.57539 | 19.55064 | 26703 ft | 489 kts | 51° |
| 2026-05-07 15:59 | -33.55450 | 19.58246 | 27169 ft | 493 kts | 51° |
| 2026-05-07 15:59 | -33.53320 | 19.61491 | 27645 ft | 496 kts | 51° |
| 2026-05-07 16:00 | -33.51178 | 19.64754 | 28157 ft | 500 kts | 51° |
| 2026-05-07 16:00 | -33.49024 | 19.68033 | 28769 ft | 500 kts | 51° |
| 2026-05-07 16:00 | -33.46879 | 19.71297 | 29504 ft | 497 kts | 51° |
| 2026-05-07 16:00 | -33.44739 | 19.74552 | 30245 ft | 495 kts | 51° |
| 2026-05-07 16:01 | -33.42609 | 19.77788 | 30852 ft | 494 kts | 50° |
| 2026-05-07 16:01 | -33.40483 | 19.81013 | 31399 ft | 493 kts | 50° |
| 2026-05-07 16:01 | -33.38354 | 19.84239 | 31923 ft | 493 kts | 50° |
| 2026-05-07 16:01 | -33.36227 | 19.87459 | 32455 ft | 493 kts | 50° |
| 2026-05-07 16:02 | -33.34096 | 19.90682 | 32976 ft | 493 kts | 50° |
| 2026-05-07 16:02 | -33.31963 | 19.93903 | 33497 ft | 493 kts | 50° |
| 2026-05-07 16:02 | -33.29822 | 19.97109 | 34010 ft | 493 kts | 49° |
| 2026-05-07 16:02 | -33.27577 | 20.00204 | 34430 ft | 492 kts | 46° |
| 2026-05-07 16:03 | -33.25290 | 20.03254 | 34850 ft | 492 kts | 46° |
| 2026-05-07 16:03 | -33.22996 | 20.06296 | 35260 ft | 492 kts | 46° |
| 2026-05-07 16:03 | -33.20701 | 20.09339 | 35650 ft | 493 kts | 46° |
| 2026-05-07 16:03 | -33.18403 | 20.12384 | 35975 ft | 494 kts | 46° |
| 2026-05-07 16:04 | -33.16093 | 20.15445 | 36253 ft | 497 kts | 46° |
| 2026-05-07 16:04 | -33.13804 | 20.18476 | 36535 ft | 499 kts | 46° |
| 2026-05-07 16:04 | -33.11472 | 20.21565 | 36817 ft | 501 kts | 45° |
| 2026-05-07 16:04 | -33.09135 | 20.24658 | 37086 ft | 503 kts | 45° |
| 2026-05-07 16:05 | -33.06785 | 20.27767 | 37161 ft | 505 kts | 45° |
| 2026-05-07 16:05 | -33.02065 | 20.34000 | 37162 ft | 505 kts | 45° |
| 2026-05-07 16:06 | -32.97349 | 20.40222 | 37163 ft | 506 kts | 45° |
| 2026-05-07 16:06 | -32.92628 | 20.46435 | 37164 ft | 505 kts | 45° |
| 2026-05-07 16:07 | -32.87901 | 20.52648 | 37168 ft | 506 kts | 45° |
| 2026-05-07 16:07 | -32.83176 | 20.58846 | 37167 ft | 505 kts | 45° |
| 2026-05-07 16:08 | -32.78441 | 20.65048 | 37167 ft | 505 kts | 45° |
| 2026-05-07 16:08 | -32.73710 | 20.71234 | 37169 ft | 505 kts | 45° |
| 2026-05-07 16:09 | -32.68975 | 20.77416 | 37170 ft | 505 kts | 45° |
| 2026-05-07 16:09 | -32.64273 | 20.83542 | 37169 ft | 505 kts | 45° |
| 2026-05-07 16:10 | -32.59535 | 20.89707 | 37170 ft | 505 kts | 45° |
| 2026-05-07 16:10 | -32.54791 | 20.95868 | 37169 ft | 505 kts | 45° |
| 2026-05-07 16:11 | -32.50010 | 21.02067 | 37167 ft | 506 kts | 45° |
| 2026-05-07 16:11 | -32.45257 | 21.08219 | 37166 ft | 506 kts | 45° |
| 2026-05-07 16:12 | -32.40521 | 21.14338 | 37168 ft | 506 kts | 45° |
| 2026-05-07 16:12 | -32.35758 | 21.20481 | 37161 ft | 506 kts | 45° |
| 2026-05-07 16:13 | -32.30994 | 21.26617 | 37166 ft | 506 kts | 45° |
| 2026-05-07 16:13 | -32.26224 | 21.32750 | 37163 ft | 506 kts | 45° |
| 2026-05-07 16:14 | -32.21449 | 21.38879 | 37155 ft | 507 kts | 45° |
| 2026-05-07 16:14 | -32.16668 | 21.45004 | 37162 ft | 507 kts | 45° |
| 2026-05-07 16:15 | -32.11883 | 21.51126 | 37159 ft | 507 kts | 45° |
| 2026-05-07 16:15 | -32.07096 | 21.57239 | 37161 ft | 507 kts | 45° |
| 2026-05-07 16:16 | -32.02302 | 21.63352 | 37156 ft | 507 kts | 45° |
| 2026-05-07 16:16 | -31.97506 | 21.69457 | 37151 ft | 507 kts | 45° |
| 2026-05-07 16:17 | -31.92706 | 21.75557 | 37156 ft | 507 kts | 45° |
| 2026-05-07 16:17 | -31.87931 | 21.81615 | 37161 ft | 508 kts | 45° |
| 2026-05-07 16:18 | -31.83123 | 21.87706 | 37154 ft | 508 kts | 45° |
| 2026-05-07 16:18 | -31.78308 | 21.93794 | 37158 ft | 508 kts | 45° |
| 2026-05-07 16:19 | -31.73486 | 21.99883 | 37149 ft | 508 kts | 45° |
| 2026-05-07 16:19 | -31.68662 | 22.05962 | 37157 ft | 509 kts | 45° |
| 2026-05-07 16:20 | -31.63833 | 22.12039 | 37149 ft | 509 kts | 45° |
| 2026-05-07 16:20 | -31.58997 | 22.18113 | 37168 ft | 509 kts | 45° |
| 2026-05-07 16:21 | -31.54185 | 22.24150 | 37154 ft | 509 kts | 44° |
| 2026-05-07 16:21 | -31.49340 | 22.30216 | 37150 ft | 509 kts | 44° |
| 2026-05-07 16:22 | -31.44495 | 22.36274 | 37159 ft | 509 kts | 44° |
| 2026-05-07 16:22 | -31.39642 | 22.42331 | 37154 ft | 510 kts | 44° |
| 2026-05-07 16:23 | -31.34786 | 22.48383 | 37152 ft | 510 kts | 44° |
| 2026-05-07 16:23 | -31.29926 | 22.54429 | 37137 ft | 510 kts | 44° |
| 2026-05-07 16:24 | -31.25061 | 22.60475 | 37142 ft | 510 kts | 44° |
| 2026-05-07 16:24 | -31.20186 | 22.66520 | 37139 ft | 510 kts | 44° |
| 2026-05-07 16:25 | -31.15310 | 22.72560 | 37134 ft | 511 kts | 44° |
| 2026-05-07 16:25 | -31.10429 | 22.78602 | 37132 ft | 511 kts | 44° |
| 2026-05-07 16:26 | -31.05538 | 22.84647 | 37134 ft | 512 kts | 44° |
| 2026-05-07 16:26 | -31.00633 | 22.90676 | 37129 ft | 512 kts | 44° |
| 2026-05-07 16:27 | -30.95751 | 22.96654 | 37129 ft | 512 kts | 44° |
| 2026-05-07 16:27 | -30.90826 | 23.02678 | 37124 ft | 513 kts | 44° |
| 2026-05-07 16:28 | -30.85905 | 23.08692 | 37125 ft | 513 kts | 44° |
| 2026-05-07 16:28 | -30.80980 | 23.14700 | 37122 ft | 513 kts | 44° |
| 2026-05-07 16:29 | -30.76047 | 23.20709 | 37125 ft | 513 kts | 44° |
| 2026-05-07 16:29 | -30.71112 | 23.26712 | 37123 ft | 513 kts | 44° |
| 2026-05-07 16:30 | -30.66174 | 23.32717 | 37125 ft | 513 kts | 44° |
| 2026-05-07 16:30 | -30.61232 | 23.38713 | 37126 ft | 513 kts | 44° |
| 2026-05-07 16:31 | -30.56286 | 23.44703 | 37125 ft | 513 kts | 44° |
| 2026-05-07 16:31 | -30.51338 | 23.50684 | 37125 ft | 513 kts | 43° |
| 2026-05-07 16:32 | -30.46385 | 23.56661 | 37126 ft | 513 kts | 43° |
| 2026-05-07 16:32 | -30.41428 | 23.62632 | 37127 ft | 513 kts | 43° |
| 2026-05-07 16:33 | -30.36508 | 23.68551 | 37128 ft | 513 kts | 43° |
| 2026-05-07 16:33 | -30.31547 | 23.74509 | 37125 ft | 513 kts | 43° |
| 2026-05-07 16:34 | -30.26586 | 23.80458 | 37133 ft | 513 kts | 43° |
| 2026-05-07 16:34 | -30.21619 | 23.86404 | 37130 ft | 513 kts | 43° |
| 2026-05-07 16:35 | -30.16649 | 23.92345 | 37133 ft | 513 kts | 43° |
| 2026-05-07 16:35 | -30.11676 | 23.98281 | 37132 ft | 513 kts | 43° |
| 2026-05-07 16:36 | -30.06703 | 24.04206 | 37137 ft | 513 kts | 43° |
| 2026-05-07 16:36 | -30.01723 | 24.10125 | 37134 ft | 513 kts | 43° |
| 2026-05-07 16:37 | -29.96740 | 24.16039 | 37135 ft | 514 kts | 43° |
| 2026-05-07 16:37 | -29.91751 | 24.21954 | 37135 ft | 514 kts | 43° |
| 2026-05-07 16:38 | -29.86767 | 24.27856 | 37136 ft | 514 kts | 43° |
| 2026-05-07 16:38 | -29.81774 | 24.33761 | 37132 ft | 514 kts | 43° |
| 2026-05-07 16:39 | -29.76781 | 24.39657 | 37133 ft | 514 kts | 42° |
| 2026-05-07 16:39 | -29.71787 | 24.45545 | 37132 ft | 514 kts | 42° |
| 2026-05-07 16:40 | -29.66783 | 24.51437 | 37135 ft | 514 kts | 42° |
| 2026-05-07 16:40 | -29.61811 | 24.57278 | 37131 ft | 514 kts | 42° |
| 2026-05-07 16:41 | -29.56811 | 24.63142 | 37136 ft | 513 kts | 42° |
| 2026-05-07 16:41 | -29.51805 | 24.69004 | 37135 ft | 513 kts | 42° |
| 2026-05-07 16:42 | -29.46803 | 24.74857 | 37137 ft | 513 kts | 42° |
| 2026-05-07 16:42 | -29.41791 | 24.80713 | 37136 ft | 513 kts | 41° |
| 2026-05-07 16:43 | -29.36787 | 24.86552 | 37138 ft | 513 kts | 41° |
| 2026-05-07 16:43 | -29.31784 | 24.92379 | 37131 ft | 513 kts | 41° |
| 2026-05-07 16:44 | -29.26775 | 24.98206 | 37134 ft | 512 kts | 41° |
| 2026-05-07 16:44 | -29.22620 | 25.03039 | 37059 ft | 511 kts | 40° |
| 2026-05-07 16:45 | -29.16797 | 25.09798 | 37126 ft | 509 kts | 40° |
| 2026-05-07 16:45 | -29.12656 | 25.14589 | 37131 ft | 509 kts | 40° |
| 2026-05-07 16:46 | -29.07677 | 25.20345 | 37130 ft | 509 kts | 40° |
| 2026-05-07 16:46 | -29.02695 | 25.26098 | 37128 ft | 509 kts | 40° |
| 2026-05-07 16:47 | -28.97708 | 25.31851 | 37132 ft | 509 kts | 40° |
| 2026-05-07 16:47 | -28.92722 | 25.37592 | 37130 ft | 509 kts | 40° |
| 2026-05-07 16:48 | -28.87733 | 25.43329 | 37129 ft | 509 kts | 39° |
| 2026-05-07 16:48 | -28.82775 | 25.49023 | 37134 ft | 509 kts | 39° |
| 2026-05-07 16:49 | -28.77779 | 25.54752 | 37131 ft | 509 kts | 39° |
| 2026-05-07 16:49 | -28.72778 | 25.60477 | 37128 ft | 509 kts | 39° |
| 2026-05-07 16:50 | -28.67779 | 25.66194 | 37131 ft | 509 kts | 39° |
| 2026-05-07 16:50 | -28.62775 | 25.71908 | 37134 ft | 509 kts | 39° |
| 2026-05-07 16:51 | -28.57767 | 25.77617 | 37127 ft | 509 kts | 39° |
| 2026-05-07 16:51 | -28.52755 | 25.83325 | 37139 ft | 509 kts | 39° |
| 2026-05-07 16:52 | -28.47740 | 25.89027 | 37137 ft | 509 kts | 39° |
| 2026-05-07 16:52 | -28.42724 | 25.94724 | 37136 ft | 510 kts | 39° |
| 2026-05-07 16:53 | -28.37702 | 26.00419 | 37135 ft | 509 kts | 39° |
| 2026-05-07 16:53 | -28.32673 | 26.06108 | 37134 ft | 510 kts | 38° |
| 2026-05-07 16:54 | -28.27644 | 26.11787 | 37127 ft | 510 kts | 38° |
| 2026-05-07 16:54 | -28.22611 | 26.17466 | 37135 ft | 510 kts | 38° |
| 2026-05-07 16:55 | -28.17612 | 26.23101 | 37135 ft | 510 kts | 38° |
| 2026-05-07 16:55 | -28.12569 | 26.28776 | 37137 ft | 510 kts | 38° |
| 2026-05-07 16:56 | -28.07526 | 26.34446 | 37139 ft | 510 kts | 38° |
| 2026-05-07 16:56 | -27.99953 | 26.42942 | 37141 ft | 510 kts | 38° |
| 2026-05-07 16:57 | -27.94901 | 26.48595 | 37137 ft | 511 kts | 38° |
| 2026-05-07 16:57 | -27.89848 | 26.54245 | 37139 ft | 511 kts | 37° |
| 2026-05-07 16:58 | -27.84791 | 26.59892 | 37139 ft | 511 kts | 37° |
| 2026-05-07 16:58 | -27.79726 | 26.65541 | 37140 ft | 511 kts | 37° |
| 2026-05-07 16:59 | -27.74662 | 26.71181 | 37145 ft | 511 kts | 37° |
| 2026-05-07 16:59 | -27.69598 | 26.76814 | 37148 ft | 511 kts | 37° |
| 2026-05-07 17:00 | -27.64532 | 26.82442 | 37144 ft | 511 kts | 37° |
| 2026-05-07 17:00 | -27.59462 | 26.88067 | 37144 ft | 511 kts | 37° |
| 2026-05-07 17:01 | -27.54393 | 26.93682 | 37148 ft | 511 kts | 37° |
| 2026-05-07 17:01 | -27.49320 | 26.99294 | 37146 ft | 510 kts | 37° |
| 2026-05-07 17:02 | -27.44250 | 27.04896 | 37159 ft | 510 kts | 37° |
| 2026-05-07 17:02 | -27.39212 | 27.10455 | 37155 ft | 510 kts | 37° |
| 2026-05-07 17:03 | -27.34141 | 27.16042 | 36919 ft | 509 kts | 37° |
| 2026-05-07 17:03 | -27.31595 | 27.18840 | 36062 ft | 515 kts | 37° |
| 2026-05-07 17:03 | -27.29001 | 27.21681 | 35137 ft | 523 kts | 37° |
| 2026-05-07 17:04 | -27.26389 | 27.24552 | 34431 ft | 526 kts | 38° |
| 2026-05-07 17:04 | -27.23771 | 27.27433 | 33743 ft | 527 kts | 38° |
| 2026-05-07 17:04 | -27.21143 | 27.30301 | 33010 ft | 526 kts | 37° |
| 2026-05-07 17:04 | -27.18413 | 27.33018 | 32280 ft | 523 kts | 34° |
| 2026-05-07 17:05 | -27.15631 | 27.35666 | 31539 ft | 524 kts | 34° |
| 2026-05-07 17:05 | -27.12833 | 27.38308 | 30783 ft | 526 kts | 34° |
| 2026-05-07 17:05 | -27.10030 | 27.40950 | 30044 ft | 526 kts | 34° |
| 2026-05-07 17:05 | -27.07232 | 27.43593 | 29273 ft | 525 kts | 34° |
| 2026-05-07 17:06 | -27.04446 | 27.46229 | 28566 ft | 522 kts | 34° |
| 2026-05-07 17:06 | -27.01676 | 27.48850 | 27887 ft | 519 kts | 34° |
| 2026-05-07 17:06 | -26.98946 | 27.51435 | 27676 ft | 506 kts | 34° |
| 2026-05-07 17:06 | -26.96293 | 27.53951 | 27580 ft | 491 kts | 34° |
| 2026-05-07 17:07 | -26.93721 | 27.56385 | 27503 ft | 476 kts | 34° |
| 2026-05-07 17:07 | -26.91221 | 27.58746 | 27429 ft | 462 kts | 34° |
| 2026-05-07 17:07 | -26.88798 | 27.61030 | 27361 ft | 448 kts | 33° |
| 2026-05-07 17:07 | -26.86444 | 27.63245 | 27283 ft | 435 kts | 33° |
| 2026-05-07 17:08 | -26.84158 | 27.65397 | 27191 ft | 423 kts | 33° |
| 2026-05-07 17:08 | -26.81922 | 27.67457 | 27118 ft | 408 kts | 30° |
| 2026-05-07 17:08 | -26.79680 | 27.69375 | 26771 ft | 404 kts | 30° |
| 2026-05-07 17:08 | -26.77474 | 27.71232 | 26372 ft | 402 kts | 30° |
| 2026-05-07 17:09 | -26.75213 | 27.73132 | 25964 ft | 400 kts | 30° |
| 2026-05-07 17:09 | -26.73028 | 27.74972 | 25600 ft | 397 kts | 30° |
| 2026-05-07 17:09 | -26.70827 | 27.76827 | 25208 ft | 395 kts | 30° |
| 2026-05-07 17:09 | -26.68641 | 27.78671 | 24827 ft | 392 kts | 30° |
| 2026-05-07 17:10 | -26.66467 | 27.80506 | 24453 ft | 390 kts | 30° |
| 2026-05-07 17:10 | -26.64312 | 27.82324 | 24101 ft | 387 kts | 30° |
| 2026-05-07 17:10 | -26.62164 | 27.84135 | 23724 ft | 385 kts | 30° |
| 2026-05-07 17:10 | -26.60030 | 27.85936 | 23297 ft | 383 kts | 30° |
| 2026-05-07 17:11 | -26.57907 | 27.87726 | 22867 ft | 380 kts | 30° |
| 2026-05-07 17:11 | -26.55801 | 27.89501 | 22451 ft | 378 kts | 30° |
| 2026-05-07 17:11 | -26.53707 | 27.91265 | 22046 ft | 376 kts | 30° |
| 2026-05-07 17:11 | -26.51625 | 27.93017 | 21640 ft | 373 kts | 30° |
| 2026-05-07 17:12 | -26.49554 | 27.94759 | 21244 ft | 371 kts | 30° |
| 2026-05-07 17:12 | -26.47442 | 27.96382 | 20841 ft | 366 kts | 26° |
| 2026-05-07 17:12 | -26.45300 | 27.97903 | 20455 ft | 364 kts | 25° |
| 2026-05-07 17:12 | -26.43161 | 27.99398 | 20062 ft | 361 kts | 25° |
| 2026-05-07 17:13 | -26.41030 | 28.00885 | 19829 ft | 354 kts | 25° |
| 2026-05-07 17:13 | -26.38950 | 28.02303 | 19549 ft | 347 kts | 22° |
| 2026-05-07 17:13 | -26.36813 | 28.03557 | 19094 ft | 347 kts | 20° |
| 2026-05-07 17:13 | -26.34658 | 28.04754 | 18719 ft | 345 kts | 19° |
| 2026-05-07 17:14 | -26.32506 | 28.05934 | 18327 ft | 344 kts | 19° |
| 2026-05-07 17:14 | -26.30363 | 28.07100 | 17931 ft | 342 kts | 19° |
| 2026-05-07 17:14 | -26.28234 | 28.08254 | 17534 ft | 340 kts | 19° |
| 2026-05-07 17:14 | -26.26102 | 28.09407 | 17151 ft | 337 kts | 19° |
| 2026-05-07 17:15 | -26.23997 | 28.10539 | 16785 ft | 335 kts | 19° |
| 2026-05-07 17:15 | -26.21900 | 28.11665 | 16417 ft | 333 kts | 19° |
| 2026-05-07 17:15 | -26.19816 | 28.12785 | 16066 ft | 331 kts | 19° |
| 2026-05-07 17:15 | -26.17746 | 28.13894 | 15689 ft | 329 kts | 19° |
| 2026-05-07 17:16 | -26.15681 | 28.14997 | 15331 ft | 328 kts | 19° |
| 2026-05-07 17:16 | -26.13631 | 28.16088 | 14993 ft | 325 kts | 19° |
| 2026-05-07 17:16 | -26.11603 | 28.17169 | 14746 ft | 320 kts | 19° |
| 2026-05-07 17:16 | -26.09616 | 28.18234 | 14436 ft | 315 kts | 19° |
| 2026-05-07 17:17 | -26.07672 | 28.19278 | 13852 ft | 313 kts | 20° |
| 2026-05-07 17:17 | -26.05713 | 28.20322 | 13238 ft | 310 kts | 20° |
| 2026-05-07 17:17 | -26.03763 | 28.21349 | 12653 ft | 307 kts | 20° |
| 2026-05-07 17:17 | -26.01839 | 28.22349 | 12053 ft | 304 kts | 20° |
| 2026-05-07 17:18 | -25.99928 | 28.23322 | 11482 ft | 301 kts | 20° |
| 2026-05-07 17:18 | -25.98019 | 28.24276 | 10925 ft | 299 kts | 20° |
| 2026-05-07 17:18 | -25.96129 | 28.25203 | 10380 ft | 296 kts | 20° |
| 2026-05-07 17:18 | -25.94241 | 28.26107 | 9812 ft | 294 kts | 20° |
| 2026-05-07 17:19 | -25.92365 | 28.26987 | 9232 ft | 291 kts | 20° |
| 2026-05-07 17:19 | -25.90504 | 28.27847 | 8646 ft | 288 kts | 20° |
| 2026-05-07 17:19 | -25.88693 | 28.28769 | 8255 ft | 286 kts | 34° |
| 2026-05-07 17:19 | -25.87339 | 28.30369 | 8203 ft | 287 kts | 63° |
| 2026-05-07 17:20 | -25.86779 | 28.32477 | 8244 ft | 286 kts | 90° |
| 2026-05-07 17:20 | -25.87119 | 28.34609 | 8219 ft | 277 kts | 118° |
| 2026-05-07 17:20 | -25.88230 | 28.36224 | 8196 ft | 254 kts | 148° |
| 2026-05-07 17:20 | -25.89698 | 28.37201 | 8205 ft | 242 kts | 158° |
| 2026-05-07 17:21 | -25.91206 | 28.38008 | 8204 ft | 240 kts | 159° |
| 2026-05-07 17:21 | -25.92760 | 28.38641 | 8185 ft | 236 kts | 178° |
| 2026-05-07 17:21 | -25.94341 | 28.38380 | 8193 ft | 230 kts | 209° |
| 2026-05-07 17:21 | -25.95517 | 28.37260 | 8211 ft | 219 kts | 233° |
| 2026-05-07 17:22 | -25.96353 | 28.35859 | 8167 ft | 216 kts | 238° |
| 2026-05-07 17:22 | -25.97095 | 28.34451 | 8099 ft | 204 kts | 239° |
| 2026-05-07 17:22 | -25.97773 | 28.33130 | 8019 ft | 189 kts | 240° |
| 2026-05-07 17:22 | -25.98405 | 28.31890 | 8004 ft | 183 kts | 239° |
| 2026-05-07 17:23 | -25.99045 | 28.30705 | 7980 ft | 174 kts | 225° |
| 2026-05-07 17:23 | -26.00028 | 28.29991 | 7985 ft | 172 kts | 206° |
| 2026-05-07 17:23 | -26.01160 | 28.29553 | 7995 ft | 172 kts | 200° |
| 2026-05-07 17:23 | -26.02317 | 28.29197 | 7822 ft | 172 kts | 198° |
| 2026-05-07 17:24 | -26.03467 | 28.28854 | 7592 ft | 171 kts | 198° |
| 2026-05-07 17:24 | -26.04611 | 28.28505 | 7394 ft | 171 kts | 199° |
| 2026-05-07 17:24 | -26.05759 | 28.28148 | 7173 ft | 171 kts | 198° |
| 2026-05-07 17:24 | -26.06904 | 28.27791 | 6964 ft | 171 kts | 198° |
| 2026-05-07 17:25 | -26.08047 | 28.27434 | 6733 ft | 170 kts | 198° |
| 2026-05-07 17:25 | -26.09184 | 28.27080 | 6505 ft | 170 kts | 198° |
| 2026-05-07 17:25 | -26.10318 | 28.26726 | 6242 ft | 169 kts | 198° |
| 2026-05-07 17:25 | -26.11445 | 28.26375 | 5972 ft | 168 kts | 197° |
| 2026-05-07 17:26 | -26.12591 | 28.26020 | 5726 ft | 166 kts | 196° |
| 2026-05-07 17:26 | -26.13711 | 28.25670 | 5534 ft | 161 kts | 190° |
| 2026-05-07 17:26 | -26.14618 | 28.25388 | 5514 ft | 100 kts | 195° |
| 2026-05-07 17:26 | -26.15090 | 28.25241 | 5518 ft | 56 kts | 196° |
| 2026-05-07 17:27 | -26.15374 | 28.25154 | 5522 ft | 33 kts | 195° |
| 2026-05-07 17:27 | -26.15556 | 28.25097 | 5525 ft | 16 kts | 200° |
| 2026-05-07 17:27 | -26.15590 | 28.24996 | 5524 ft | 17 kts | 281° |
| 2026-05-07 17:27 | -26.15541 | 28.24903 | 5522 ft | 12 kts | 336° |
| 2026-05-07 17:28 | -26.15458 | 28.24919 | 5523 ft | 13 kts | 16° |
| 2026-05-07 17:28 | -26.15361 | 28.24951 | 5523 ft | 16 kts | 15° |
| 2026-05-07 17:28 | -26.15245 | 28.24987 | 5523 ft | 18 kts | 15° |
| 2026-05-07 17:28 | -26.15117 | 28.25027 | 5524 ft | 20 kts | 15° |
| 2026-05-07 17:29 | -26.14973 | 28.25071 | 5521 ft | 23 kts | 15° |
| 2026-05-07 17:29 | -26.14837 | 28.25113 | 5520 ft | 21 kts | 16° |
| 2026-05-07 17:29 | -26.14690 | 28.25158 | 5520 ft | 20 kts | 15° |
| 2026-05-07 17:29 | -26.14563 | 28.25198 | 5519 ft | 20 kts | 15° |
| 2026-05-07 17:30 | -26.14458 | 28.25192 | 5521 ft | 15 kts | 322° |
| 2026-05-07 17:30 | -26.14385 | 28.25114 | 5529 ft | 13 kts | 316° |
| 2026-05-07 17:30 | -26.14336 | 28.25061 | 5537 ft | 8 kts | 316° |
| 2026-05-07 17:30 | -26.14296 | 28.25018 | 5544 ft | 13 kts | 316° |
| 2026-05-07 17:31 | -26.14198 | 28.24911 | 5543 ft | 22 kts | 315° |
| 2026-05-07 17:31 | -26.14087 | 28.24791 | 5543 ft | 23 kts | 316° |
| 2026-05-07 17:31 | -26.13981 | 28.24676 | 5545 ft | 21 kts | 316° |
| 2026-05-07 17:31 | -26.13932 | 28.24536 | 5540 ft | 21 kts | 258° |
| 2026-05-07 17:32 | -26.13967 | 28.24382 | 5544 ft | 21 kts | 255° |
| 2026-05-07 17:32 | -26.13979 | 28.24219 | 5548 ft | 19 kts | 280° |
| 2026-05-07 17:32 | -26.13951 | 28.24095 | 5558 ft | 14 kts | 285° |
| 2026-05-07 17:32 | -26.13935 | 28.24028 | 5561 ft | 12 kts | 285° |
| 2026-05-07 17:33 | -26.13919 | 28.23967 | 5565 ft | 1 kts | 285° |
| 2026-05-07 17:33 | -26.13917 | 28.23959 | 5565 ft | 1 kts | 285° |
| 2026-05-07 17:33 | -26.13915 | 28.23948 | 5565 ft | 4 kts | 285° |
| 2026-05-07 17:33 | -26.13896 | 28.23876 | 5568 ft | 16 kts | 285° |
| 2026-05-07 17:34 | -26.13856 | 28.23720 | 5568 ft | 22 kts | 286° |
| 2026-05-07 17:34 | -26.13814 | 28.23554 | 5567 ft | 19 kts | 286° |
| 2026-05-07 17:34 | -26.13779 | 28.23413 | 5557 ft | 15 kts | 287° |
| 2026-05-07 17:34 | -26.13738 | 28.23349 | 5558 ft | 14 kts | 335° |
| 2026-05-07 17:35 | -26.13628 | 28.23349 | 5556 ft | 17 kts | 5° |
| 2026-05-07 17:35 | -26.13503 | 28.23364 | 5558 ft | 19 kts | 6° |
| 2026-05-07 17:35 | -26.13368 | 28.23386 | 5557 ft | 20 kts | 7° |
| 2026-05-07 17:35 | -26.13226 | 28.23402 | 5556 ft | 17 kts | 6° |
| 2026-05-07 17:36 | -26.13118 | 28.23439 | 5559 ft | 15 kts | 62° |
| 2026-05-07 17:36 | -26.13109 | 28.23529 | 5558 ft | 2 kts | 38° |
| 2026-05-07 17:36 | -26.13078 | 28.23537 | 5557 ft | 5 kts | 3° |
| 2026-05-07 17:36 | -26.13047 | 28.23539 | 5558 ft | 0 kts | 5° |
| 2026-05-07 17:37 | -26.13040 | 28.23540 | 5558 ft | 2 kts | 6° |
| 2026-05-07 17:37 | -26.13037 | 28.23541 | 5555 ft | 0 kts | 6° |